sensor_id;sensor_type;location;lat;lon;timestamp;temperature;humidity
55777;DHT22;54079;44.540;18.784;2022-11-20T00:00:55;8.90;99.90
55777;DHT22;54079;44.540;18.784;2022-11-20T00:03:21;8.80;99.90
55777;DHT22;54079;44.540;18.784;2022-11-20T00:05:47;8.80;99.90
55777;DHT22;54079;44.540;18.784;2022-11-20T00:08:13;8.90;99.90
55777;DHT22;54079;44.540;18.784;2022-11-20T00:10:40;9.00;99.90
55777;DHT22;54079;44.540;18.784;2022-11-20T00:13:07;8.60;99.90
55777;DHT22;54079;44.540;18.784;2022-11-20T00:15:33;8.50;99.90
55777;DHT22;54079;44.540;18.784;2022-11-20T00:17:59;8.60;99.90
55777;DHT22;54079;44.540;18.784;2022-11-20T00:20:25;8.70;99.90
55777;DHT22;54079;44.540;18.784;2022-11-20T00:22:51;8.70;99.90
55777;DHT22;54079;44.540;18.784;2022-11-20T00:25:18;8.60;99.90
55777;DHT22;54079;44.540;18.784;2022-11-20T00:27:44;8.60;99.90
55777;DHT22;54079;44.540;18.784;2022-11-20T00:30:10;8.70;99.90
55777;DHT22;54079;44.540;18.784;2022-11-20T00:32:36;8.50;99.90
55777;DHT22;54079;44.540;18.784;2022-11-20T00:35:02;8.60;99.90
55777;DHT22;54079;44.540;18.784;2022-11-20T00:37:28;8.70;99.90
55777;DHT22;54079;44.540;18.784;2022-11-20T00:39:54;8.90;99.90
55777;DHT22;54079;44.540;18.784;2022-11-20T00:42:20;9.10;99.90
55777;DHT22;54079;44.540;18.784;2022-11-20T00:44:46;9.00;99.90
55777;DHT22;54079;44.540;18.784;2022-11-20T00:47:12;9.00;99.90
55777;DHT22;54079;44.540;18.784;2022-11-20T00:49:37;9.20;99.90
55777;DHT22;54079;44.540;18.784;2022-11-20T00:52:03;9.30;99.90
55777;DHT22;54079;44.540;18.784;2022-11-20T00:54:29;9.00;99.90
55777;DHT22;54079;44.540;18.784;2022-11-20T00:56:55;9.10;99.90
55777;DHT22;54079;44.540;18.784;2022-11-20T00:59:21;9.00;99.90
55777;DHT22;54079;44.540;18.784;2022-11-20T01:01:47;9.10;99.90
55777;DHT22;54079;44.540;18.784;2022-11-20T01:04:13;9.20;99.90
55777;DHT22;54079;44.540;18.784;2022-11-20T01:06:39;9.00;99.90
55777;DHT22;54079;44.540;18.784;2022-11-20T01:09:11;8.70;99.90
55777;DHT22;54079;44.540;18.784;2022-11-20T01:11:40;8.60;99.90
55777;DHT22;54079;44.540;18.784;2022-11-20T01:14:10;8.60;99.90
55777;DHT22;54079;44.540;18.784;2022-11-20T01:16:42;8.80;99.90
55777;DHT22;54079;44.540;18.784;2022-11-20T01:19:11;8.90;99.90
55777;DHT22;54079;44.540;18.784;2022-11-20T01:21:40;8.90;99.90
55777;DHT22;54079;44.540;18.784;2022-11-20T01:24:10;8.60;99.90
55777;DHT22;54079;44.540;18.784;2022-11-20T01:26:38;8.80;99.90
55777;DHT22;54079;44.540;18.784;2022-11-20T01:29:04;8.90;99.90
55777;DHT22;54079;44.540;18.784;2022-11-20T01:31:33;9.10;99.90
55777;DHT22;54079;44.540;18.784;2022-11-20T01:34:07;9.20;99.90
55777;DHT22;54079;44.540;18.784;2022-11-20T01:36:35;9.20;99.90
55777;DHT22;54079;44.540;18.784;2022-11-20T01:39:04;9.20;99.90
55777;DHT22;54079;44.540;18.784;2022-11-20T01:41:32;9.20;99.90
55777;DHT22;54079;44.540;18.784;2022-11-20T01:44:19;9.20;99.90
55777;DHT22;54079;44.540;18.784;2022-11-20T01:47:06;9.30;99.90
55777;DHT22;54079;44.540;18.784;2022-11-20T01:49:45;9.30;99.90
55777;DHT22;54079;44.540;18.784;2022-11-20T01:52:19;9.20;99.90
55777;DHT22;54079;44.540;18.784;2022-11-20T01:55:04;9.20;99.90
55777;DHT22;54079;44.540;18.784;2022-11-20T01:57:32;9.10;99.90
55777;DHT22;54079;44.540;18.784;2022-11-20T02:00:06;8.70;99.90
55777;DHT22;54079;44.540;18.784;2022-11-20T02:02:32;8.80;99.90
55777;DHT22;54079;44.540;18.784;2022-11-20T02:05:03;9.00;99.90
55777;DHT22;54079;44.540;18.784;2022-11-20T02:07:30;9.20;99.90
55777;DHT22;54079;44.540;18.784;2022-11-20T02:09:56;9.10;99.90
55777;DHT22;54079;44.540;18.784;2022-11-20T02:12:22;9.20;99.90
55777;DHT22;54079;44.540;18.784;2022-11-20T02:15:06;9.30;99.90
55777;DHT22;54079;44.540;18.784;2022-11-20T02:17:32;9.40;99.90
55777;DHT22;54079;44.540;18.784;2022-11-20T02:19:58;9.50;99.90
55777;DHT22;54079;44.540;18.784;2022-11-20T02:22:35;9.50;99.90
55777;DHT22;54079;44.540;18.784;2022-11-20T02:25:03;9.50;99.90
55777;DHT22;54079;44.540;18.784;2022-11-20T02:27:29;9.60;99.90
55777;DHT22;54079;44.540;18.784;2022-11-20T02:30:03;9.50;99.90
55777;DHT22;54079;44.540;18.784;2022-11-20T02:32:34;9.50;99.90
55777;DHT22;54079;44.540;18.784;2022-11-20T02:37:58;9.40;99.90
55777;DHT22;54079;44.540;18.784;2022-11-20T02:40:25;9.10;99.90
55777;DHT22;54079;44.540;18.784;2022-11-20T02:42:55;9.30;99.90
55777;DHT22;54079;44.540;18.784;2022-11-20T02:45:21;9.40;99.90
55777;DHT22;54079;44.540;18.784;2022-11-20T02:47:48;9.40;99.90
55777;DHT22;54079;44.540;18.784;2022-11-20T02:50:14;9.40;99.90
55777;DHT22;54079;44.540;18.784;2022-11-20T02:52:40;9.40;99.90
55777;DHT22;54079;44.540;18.784;2022-11-20T02:55:06;9.30;99.90
55777;DHT22;54079;44.540;18.784;2022-11-20T02:57:32;9.30;99.90
55777;DHT22;54079;44.540;18.784;2022-11-20T02:59:58;9.10;99.90
55777;DHT22;54079;44.540;18.784;2022-11-20T03:02:24;9.30;99.90
55777;DHT22;54079;44.540;18.784;2022-11-20T03:04:50;9.30;99.90
55777;DHT22;54079;44.540;18.784;2022-11-20T03:07:16;9.10;99.90
55777;DHT22;54079;44.540;18.784;2022-11-20T03:09:42;9.10;99.90
55777;DHT22;54079;44.540;18.784;2022-11-20T03:12:08;8.90;99.90
55777;DHT22;54079;44.540;18.784;2022-11-20T03:14:34;8.60;99.90
55777;DHT22;54079;44.540;18.784;2022-11-20T03:17:00;8.70;99.90
55777;DHT22;54079;44.540;18.784;2022-11-20T03:19:26;8.50;99.90
55777;DHT22;54079;44.540;18.784;2022-11-20T03:21:52;8.30;99.90
55777;DHT22;54079;44.540;18.784;2022-11-20T03:24:18;8.60;99.90
55777;DHT22;54079;44.540;18.784;2022-11-20T03:26:44;8.70;99.90
55777;DHT22;54079;44.540;18.784;2022-11-20T03:29:10;8.80;99.90
55777;DHT22;54079;44.540;18.784;2022-11-20T03:31:38;8.50;99.90
55777;DHT22;54079;44.540;18.784;2022-11-20T03:34:08;8.60;99.90
55777;DHT22;54079;44.540;18.784;2022-11-20T03:36:35;8.60;99.90
55777;DHT22;54079;44.540;18.784;2022-11-20T03:39:02;8.70;99.90
55777;DHT22;54079;44.540;18.784;2022-11-20T03:41:30;8.50;99.90
55777;DHT22;54079;44.540;18.784;2022-11-20T03:44:02;8.50;99.90
55777;DHT22;54079;44.540;18.784;2022-11-20T03:46:28;8.50;99.90
55777;DHT22;54079;44.540;18.784;2022-11-20T03:48:54;8.40;99.90
55777;DHT22;54079;44.540;18.784;2022-11-20T03:51:29;8.20;99.90
55777;DHT22;54079;44.540;18.784;2022-11-20T03:53:57;8.40;99.90
55777;DHT22;54079;44.540;18.784;2022-11-20T03:56:28;8.40;99.90
55777;DHT22;54079;44.540;18.784;2022-11-20T03:58:55;8.50;99.90
55777;DHT22;54079;44.540;18.784;2022-11-20T04:01:26;8.30;99.90
55777;DHT22;54079;44.540;18.784;2022-11-20T04:03:53;8.40;99.90
55777;DHT22;54079;44.540;18.784;2022-11-20T04:06:38;8.30;99.90
55777;DHT22;54079;44.540;18.784;2022-11-20T04:09:05;7.90;99.90
55777;DHT22;54079;44.540;18.784;2022-11-20T04:11:33;7.80;99.90
55777;DHT22;54079;44.540;18.784;2022-11-20T04:14:04;7.60;99.90
55777;DHT22;54079;44.540;18.784;2022-11-20T04:16:35;7.80;99.90
55777;DHT22;54079;44.540;18.784;2022-11-20T04:19:04;7.70;99.90
55777;DHT22;54079;44.540;18.784;2022-11-20T04:21:30;7.70;99.90
55777;DHT22;54079;44.540;18.784;2022-11-20T04:23:56;7.80;99.90
55777;DHT22;54079;44.540;18.784;2022-11-20T04:26:24;7.80;99.90
55777;DHT22;54079;44.540;18.784;2022-11-20T04:28:50;7.60;99.90
55777;DHT22;54079;44.540;18.784;2022-11-20T04:31:19;7.70;99.90
55777;DHT22;54079;44.540;18.784;2022-11-20T04:33:45;7.90;99.90
55777;DHT22;54079;44.540;18.784;2022-11-20T04:36:14;7.70;99.90
55777;DHT22;54079;44.540;18.784;2022-11-20T04:38:41;7.60;99.90
55777;DHT22;54079;44.540;18.784;2022-11-20T04:41:17;7.70;99.90
55777;DHT22;54079;44.540;18.784;2022-11-20T04:43:51;7.50;99.90
55777;DHT22;54079;44.540;18.784;2022-11-20T04:46:18;7.50;99.90
55777;DHT22;54079;44.540;18.784;2022-11-20T04:48:44;7.70;99.90
55777;DHT22;54079;44.540;18.784;2022-11-20T04:51:10;7.80;99.90
55777;DHT22;54079;44.540;18.784;2022-11-20T04:53:36;7.70;99.90
55777;DHT22;54079;44.540;18.784;2022-11-20T04:56:05;7.70;99.90
55777;DHT22;54079;44.540;18.784;2022-11-20T04:58:31;7.60;99.90
55777;DHT22;54079;44.540;18.784;2022-11-20T05:01:02;7.70;99.90
55777;DHT22;54079;44.540;18.784;2022-11-20T05:03:28;7.80;99.90
55777;DHT22;54079;44.540;18.784;2022-11-20T05:05:54;7.80;99.90
55777;DHT22;54079;44.540;18.784;2022-11-20T05:08:20;7.90;99.90
55777;DHT22;54079;44.540;18.784;2022-11-20T05:10:46;8.00;99.90
55777;DHT22;54079;44.540;18.784;2022-11-20T05:13:12;7.90;99.90
55777;DHT22;54079;44.540;18.784;2022-11-20T05:15:38;7.80;99.90
55777;DHT22;54079;44.540;18.784;2022-11-20T05:18:04;7.80;99.90
55777;DHT22;54079;44.540;18.784;2022-11-20T05:20:30;7.70;99.90
55777;DHT22;54079;44.540;18.784;2022-11-20T05:22:59;7.60;99.90
55777;DHT22;54079;44.540;18.784;2022-11-20T05:25:25;7.70;99.90
55777;DHT22;54079;44.540;18.784;2022-11-20T05:27:51;7.90;99.90
55777;DHT22;54079;44.540;18.784;2022-11-20T05:30:17;7.80;99.90
55777;DHT22;54079;44.540;18.784;2022-11-20T05:32:43;7.80;99.90
55777;DHT22;54079;44.540;18.784;2022-11-20T05:35:09;7.90;99.90
55777;DHT22;54079;44.540;18.784;2022-11-20T05:37:35;7.80;99.90
55777;DHT22;54079;44.540;18.784;2022-11-20T05:40:00;7.70;99.90
55777;DHT22;54079;44.540;18.784;2022-11-20T05:42:29;7.70;99.90
55777;DHT22;54079;44.540;18.784;2022-11-20T05:44:59;7.70;99.90
55777;DHT22;54079;44.540;18.784;2022-11-20T05:47:26;7.90;99.90
55777;DHT22;54079;44.540;18.784;2022-11-20T05:49:53;8.00;99.90
55777;DHT22;54079;44.540;18.784;2022-11-20T05:52:19;7.80;99.90
55777;DHT22;54079;44.540;18.784;2022-11-20T05:54:45;7.80;99.90
55777;DHT22;54079;44.540;18.784;2022-11-20T05:57:11;7.70;99.90
55777;DHT22;54079;44.540;18.784;2022-11-20T05:59:37;7.80;99.90
55777;DHT22;54079;44.540;18.784;2022-11-20T06:02:02;8.00;99.90
55777;DHT22;54079;44.540;18.784;2022-11-20T06:04:28;8.10;99.90
55777;DHT22;54079;44.540;18.784;2022-11-20T06:06:54;8.30;99.90
55777;DHT22;54079;44.540;18.784;2022-11-20T06:09:20;8.20;99.90
55777;DHT22;54079;44.540;18.784;2022-11-20T06:11:46;8.20;99.90
55777;DHT22;54079;44.540;18.784;2022-11-20T06:14:12;8.20;99.90
55777;DHT22;54079;44.540;18.784;2022-11-20T06:16:38;8.10;99.90
55777;DHT22;54079;44.540;18.784;2022-11-20T06:19:04;8.10;99.90
55777;DHT22;54079;44.540;18.784;2022-11-20T06:21:29;8.10;99.90
55777;DHT22;54079;44.540;18.784;2022-11-20T06:23:55;8.00;99.90
55777;DHT22;54079;44.540;18.784;2022-11-20T06:26:24;8.00;99.90
55777;DHT22;54079;44.540;18.784;2022-11-20T06:28:51;8.00;99.90
55777;DHT22;54079;44.540;18.784;2022-11-20T06:31:19;8.00;99.90
55777;DHT22;54079;44.540;18.784;2022-11-20T06:33:45;8.00;99.90
55777;DHT22;54079;44.540;18.784;2022-11-20T06:36:14;7.80;99.90
55777;DHT22;54079;44.540;18.784;2022-11-20T06:38:40;7.60;99.90
55777;DHT22;54079;44.540;18.784;2022-11-20T06:41:11;7.60;99.90
55777;DHT22;54079;44.540;18.784;2022-11-20T06:43:37;7.50;99.90
55777;DHT22;54079;44.540;18.784;2022-11-20T06:46:03;7.70;99.90
55777;DHT22;54079;44.540;18.784;2022-11-20T06:48:29;7.60;99.90
55777;DHT22;54079;44.540;18.784;2022-11-20T06:50:56;7.70;99.90
55777;DHT22;54079;44.540;18.784;2022-11-20T06:53:23;7.90;99.90
55777;DHT22;54079;44.540;18.784;2022-11-20T06:55:50;7.80;99.90
55777;DHT22;54079;44.540;18.784;2022-11-20T06:58:17;7.90;99.90
55777;DHT22;54079;44.540;18.784;2022-11-20T07:00:44;8.00;99.90
55777;DHT22;54079;44.540;18.784;2022-11-20T07:03:11;8.00;99.90
55777;DHT22;54079;44.540;18.784;2022-11-20T07:05:37;7.80;99.90
55777;DHT22;54079;44.540;18.784;2022-11-20T07:08:07;7.90;99.90
55777;DHT22;54079;44.540;18.784;2022-11-20T07:10:33;7.90;99.90
55777;DHT22;54079;44.540;18.784;2022-11-20T07:12:59;8.00;99.90
55777;DHT22;54079;44.540;18.784;2022-11-20T07:15:25;7.90;99.90
55777;DHT22;54079;44.540;18.784;2022-11-20T07:17:52;7.90;99.90
55777;DHT22;54079;44.540;18.784;2022-11-20T07:20:18;7.80;99.90
55777;DHT22;54079;44.540;18.784;2022-11-20T07:22:44;8.00;99.90
55777;DHT22;54079;44.540;18.784;2022-11-20T07:25:11;8.00;99.90
55777;DHT22;54079;44.540;18.784;2022-11-20T07:27:37;8.00;99.90
55777;DHT22;54079;44.540;18.784;2022-11-20T07:30:04;8.10;99.90
55777;DHT22;54079;44.540;18.784;2022-11-20T07:32:30;8.30;99.90
55777;DHT22;54079;44.540;18.784;2022-11-20T07:34:56;8.40;99.90
55777;DHT22;54079;44.540;18.784;2022-11-20T07:37:22;8.30;99.90
55777;DHT22;54079;44.540;18.784;2022-11-20T07:39:48;8.20;99.90
55777;DHT22;54079;44.540;18.784;2022-11-20T07:42:14;8.30;99.90
55777;DHT22;54079;44.540;18.784;2022-11-20T07:44:40;8.30;99.90
55777;DHT22;54079;44.540;18.784;2022-11-20T07:47:06;8.50;99.90
55777;DHT22;54079;44.540;18.784;2022-11-20T07:49:32;8.70;99.90
55777;DHT22;54079;44.540;18.784;2022-11-20T07:51:58;8.80;99.90
55777;DHT22;54079;44.540;18.784;2022-11-20T07:54:24;8.90;99.90
55777;DHT22;54079;44.540;18.784;2022-11-20T07:56:50;9.10;99.90
55777;DHT22;54079;44.540;18.784;2022-11-20T07:59:16;9.10;99.90
55777;DHT22;54079;44.540;18.784;2022-11-20T08:01:42;9.20;99.90
55777;DHT22;54079;44.540;18.784;2022-11-20T08:04:09;9.30;99.90
55777;DHT22;54079;44.540;18.784;2022-11-20T08:06:35;9.30;99.90
55777;DHT22;54079;44.540;18.784;2022-11-20T08:09:02;9.50;99.90
55777;DHT22;54079;44.540;18.784;2022-11-20T08:11:28;9.40;99.90
55777;DHT22;54079;44.540;18.784;2022-11-20T08:14:13;9.30;99.90
55777;DHT22;54079;44.540;18.784;2022-11-20T08:16:48;9.30;99.90
55777;DHT22;54079;44.540;18.784;2022-11-20T08:19:16;9.30;99.90
55777;DHT22;54079;44.540;18.784;2022-11-20T08:21:43;9.20;99.90
55777;DHT22;54079;44.540;18.784;2022-11-20T08:24:10;9.30;99.90
55777;DHT22;54079;44.540;18.784;2022-11-20T08:26:37;9.40;99.90
55777;DHT22;54079;44.540;18.784;2022-11-20T08:29:04;9.50;99.90
55777;DHT22;54079;44.540;18.784;2022-11-20T08:31:30;9.40;99.90
55777;DHT22;54079;44.540;18.784;2022-11-20T08:33:56;9.30;99.90
55777;DHT22;54079;44.540;18.784;2022-11-20T08:36:23;9.20;99.90
55777;DHT22;54079;44.540;18.784;2022-11-20T08:38:54;9.00;99.90
55777;DHT22;54079;44.540;18.784;2022-11-20T08:41:21;9.10;99.90
55777;DHT22;54079;44.540;18.784;2022-11-20T08:43:50;9.10;99.90
55777;DHT22;54079;44.540;18.784;2022-11-20T08:46:17;9.10;99.90
55777;DHT22;54079;44.540;18.784;2022-11-20T08:48:43;9.10;99.90
55777;DHT22;54079;44.540;18.784;2022-11-20T08:51:09;9.20;99.90
55777;DHT22;54079;44.540;18.784;2022-11-20T08:53:35;9.20;99.90
55777;DHT22;54079;44.540;18.784;2022-11-20T08:56:01;9.30;99.90
55777;DHT22;54079;44.540;18.784;2022-11-20T08:58:27;9.30;99.90
55777;DHT22;54079;44.540;18.784;2022-11-20T09:00:53;9.30;99.90
55777;DHT22;54079;44.540;18.784;2022-11-20T09:03:19;9.00;99.90
55777;DHT22;54079;44.540;18.784;2022-11-20T09:05:45;9.20;99.90
55777;DHT22;54079;44.540;18.784;2022-11-20T09:08:11;9.30;99.90
55777;DHT22;54079;44.540;18.784;2022-11-20T09:10:37;9.40;99.90
55777;DHT22;54079;44.540;18.784;2022-11-20T09:13:05;9.50;99.90
55777;DHT22;54079;44.540;18.784;2022-11-20T09:15:31;9.50;99.90
55777;DHT22;54079;44.540;18.784;2022-11-20T09:18:01;9.60;99.90
55777;DHT22;54079;44.540;18.784;2022-11-20T09:20:29;9.70;99.90
55777;DHT22;54079;44.540;18.784;2022-11-20T09:22:56;9.60;99.90
55777;DHT22;54079;44.540;18.784;2022-11-20T09:25:22;9.50;99.90
55777;DHT22;54079;44.540;18.784;2022-11-20T09:27:47;9.50;99.90
55777;DHT22;54079;44.540;18.784;2022-11-20T09:30:14;9.40;99.90
55777;DHT22;54079;44.540;18.784;2022-11-20T09:32:41;9.50;99.90
55777;DHT22;54079;44.540;18.784;2022-11-20T09:35:08;9.50;99.90
55777;DHT22;54079;44.540;18.784;2022-11-20T09:37:34;9.50;99.90
55777;DHT22;54079;44.540;18.784;2022-11-20T09:40:00;9.60;99.90
55777;DHT22;54079;44.540;18.784;2022-11-20T09:53:20;9.00;99.90
55777;DHT22;54079;44.540;18.784;2022-11-20T09:55:49;9.00;99.90
55777;DHT22;54079;44.540;18.784;2022-11-20T09:58:35;9.00;99.90
55777;DHT22;54079;44.540;18.784;2022-11-20T10:01:16;9.10;99.90
55777;DHT22;54079;44.540;18.784;2022-11-20T10:04:31;9.30;99.90
55777;DHT22;54079;44.540;18.784;2022-11-20T10:07:14;9.50;99.90
55777;DHT22;54079;44.540;18.784;2022-11-20T10:09:49;9.60;99.90
55777;DHT22;54079;44.540;18.784;2022-11-20T10:15:31;9.60;99.90
55777;DHT22;54079;44.540;18.784;2022-11-20T10:21:23;9.70;99.90
55777;DHT22;54079;44.540;18.784;2022-11-20T10:29:13;9.20;99.90
55777;DHT22;54079;44.540;18.784;2022-11-20T10:31:45;9.00;99.90
55777;DHT22;54079;44.540;18.784;2022-11-20T10:34:27;9.00;99.90
55777;DHT22;54079;44.540;18.784;2022-11-20T10:37:24;9.00;99.90
55777;DHT22;54079;44.540;18.784;2022-11-20T10:42:24;9.40;99.90
55777;DHT22;54079;44.540;18.784;2022-11-20T10:45:01;9.40;99.90
55777;DHT22;54079;44.540;18.784;2022-11-20T10:47:30;9.40;99.90
55777;DHT22;54079;44.540;18.784;2022-11-20T10:50:01;9.20;99.90
55777;DHT22;54079;44.540;18.784;2022-11-20T10:58:16;9.00;99.90
55777;DHT22;54079;44.540;18.784;2022-11-20T11:00:45;8.90;99.90
55777;DHT22;54079;44.540;18.784;2022-11-20T11:03:31;8.90;99.90
55777;DHT22;54079;44.540;18.784;2022-11-20T11:06:08;8.90;99.90
55777;DHT22;54079;44.540;18.784;2022-11-20T11:08:39;8.80;99.90
55777;DHT22;54079;44.540;18.784;2022-11-20T11:11:28;9.00;99.90
55777;DHT22;54079;44.540;18.784;2022-11-20T11:16:30;9.20;99.90
55777;DHT22;54079;44.540;18.784;2022-11-20T11:19:07;9.10;99.90
55777;DHT22;54079;44.540;18.784;2022-11-20T11:21:37;9.00;99.90
55777;DHT22;54079;44.540;18.784;2022-11-20T11:24:22;8.70;99.90
55777;DHT22;54079;44.540;18.784;2022-11-20T11:27:04;8.80;99.90
55777;DHT22;54079;44.540;18.784;2022-11-20T11:29:36;8.80;99.90
55777;DHT22;54079;44.540;18.784;2022-11-20T11:32:17;8.40;99.90
55777;DHT22;54079;44.540;18.784;2022-11-20T11:34:44;8.50;99.90
55777;DHT22;54079;44.540;18.784;2022-11-20T11:37:18;8.40;99.90
55777;DHT22;54079;44.540;18.784;2022-11-20T11:39:46;8.40;99.90
55777;DHT22;54079;44.540;18.784;2022-11-20T11:42:17;8.40;99.90
55777;DHT22;54079;44.540;18.784;2022-11-20T11:44:46;8.50;99.90
55777;DHT22;54079;44.540;18.784;2022-11-20T11:53:02;8.50;99.90
55777;DHT22;54079;44.540;18.784;2022-11-20T12:01:13;8.60;99.90
55777;DHT22;54079;44.540;18.784;2022-11-20T12:03:43;8.70;99.90
55777;DHT22;54079;44.540;18.784;2022-11-20T12:06:14;8.40;99.90
55777;DHT22;54079;44.540;18.784;2022-11-20T12:08:48;8.50;99.90
55777;DHT22;54079;44.540;18.784;2022-11-20T12:11:33;8.50;99.90
55777;DHT22;54079;44.540;18.784;2022-11-20T12:16:50;8.40;99.90
55777;DHT22;54079;44.540;18.784;2022-11-20T12:19:16;8.60;99.90
55777;DHT22;54079;44.540;18.784;2022-11-20T12:27:30;8.80;99.90
55777;DHT22;54079;44.540;18.784;2022-11-20T12:35:44;8.80;99.90
55777;DHT22;54079;44.540;18.784;2022-11-20T12:38:35;8.70;99.90
55777;DHT22;54079;44.540;18.784;2022-11-20T12:50:37;8.90;99.90
55777;DHT22;54079;44.540;18.784;2022-11-20T12:56:11;8.70;99.90
55777;DHT22;54079;44.540;18.784;2022-11-20T13:01:32;8.90;99.90
55777;DHT22;54079;44.540;18.784;2022-11-20T13:06:50;8.80;99.90
55777;DHT22;54079;44.540;18.784;2022-11-20T13:09:19;8.60;99.90
55777;DHT22;54079;44.540;18.784;2022-11-20T13:14:37;8.70;99.90
55777;DHT22;54079;44.540;18.784;2022-11-20T13:19:48;8.90;99.90
55777;DHT22;54079;44.540;18.784;2022-11-20T13:22:24;8.90;99.90
55777;DHT22;54079;44.540;18.784;2022-11-20T13:24:51;9.00;99.90
55777;DHT22;54079;44.540;18.784;2022-11-20T13:27:20;9.10;99.90
55777;DHT22;54079;44.540;18.784;2022-11-20T13:30:14;9.10;99.90
55777;DHT22;54079;44.540;18.784;2022-11-20T13:35:32;8.80;99.90
55777;DHT22;54079;44.540;18.784;2022-11-20T13:40:27;8.90;99.90
55777;DHT22;54079;44.540;18.784;2022-11-20T13:45:31;8.60;99.90
55777;DHT22;54079;44.540;18.784;2022-11-20T13:48:19;8.40;99.90
55777;DHT22;54079;44.540;18.784;2022-11-20T14:02:17;8.30;99.90
55777;DHT22;54079;44.540;18.784;2022-11-20T14:04:49;8.30;99.90
55777;DHT22;54079;44.540;18.784;2022-11-20T14:07:17;8.60;99.90
55777;DHT22;54079;44.540;18.784;2022-11-20T14:09:52;8.50;99.90
55777;DHT22;54079;44.540;18.784;2022-11-20T14:12:28;8.70;99.90
55777;DHT22;54079;44.540;18.784;2022-11-20T14:14:54;8.70;99.90
55777;DHT22;54079;44.540;18.784;2022-11-20T14:19:50;8.70;99.90
55777;DHT22;54079;44.540;18.784;2022-11-20T14:22:26;8.60;99.90
55777;DHT22;54079;44.540;18.784;2022-11-20T14:27:34;8.30;99.90
55777;DHT22;54079;44.540;18.784;2022-11-20T14:30:02;7.80;99.90
55777;DHT22;54079;44.540;18.784;2022-11-20T14:32:29;7.80;99.90
55777;DHT22;54079;44.540;18.784;2022-11-20T14:35:06;7.80;99.90
55777;DHT22;54079;44.540;18.784;2022-11-20T14:37:37;7.70;99.90
55777;DHT22;54079;44.540;18.784;2022-11-20T14:40:22;8.00;99.90
55777;DHT22;54079;44.540;18.784;2022-11-20T14:42:49;7.80;99.90
55777;DHT22;54079;44.540;18.784;2022-11-20T14:45:15;7.90;99.90
55777;DHT22;54079;44.540;18.784;2022-11-20T14:47:42;7.70;99.90
55777;DHT22;54079;44.540;18.784;2022-11-20T14:50:24;7.60;99.90
55777;DHT22;54079;44.540;18.784;2022-11-20T14:53:00;7.70;99.90
55777;DHT22;54079;44.540;18.784;2022-11-20T14:55:35;7.60;99.90
55777;DHT22;54079;44.540;18.784;2022-11-20T14:58:19;7.40;99.90
55777;DHT22;54079;44.540;18.784;2022-11-20T15:01:04;7.50;99.90
55777;DHT22;54079;44.540;18.784;2022-11-20T15:03:35;7.60;99.90
55777;DHT22;54079;44.540;18.784;2022-11-20T15:06:02;7.60;99.90
55777;DHT22;54079;44.540;18.784;2022-11-20T15:08:28;7.60;99.90
55777;DHT22;54079;44.540;18.784;2022-11-20T15:10:55;7.70;99.90
55777;DHT22;54079;44.540;18.784;2022-11-20T15:13:36;7.90;99.90
55777;DHT22;54079;44.540;18.784;2022-11-20T15:16:08;8.00;99.90
55777;DHT22;54079;44.540;18.784;2022-11-20T15:18:40;8.20;99.90
55777;DHT22;54079;44.540;18.784;2022-11-20T15:21:18;8.30;99.90
55777;DHT22;54079;44.540;18.784;2022-11-20T15:23:44;8.30;99.90
55777;DHT22;54079;44.540;18.784;2022-11-20T15:26:12;8.30;99.90
55777;DHT22;54079;44.540;18.784;2022-11-20T15:28:42;8.30;99.90
55777;DHT22;54079;44.540;18.784;2022-11-20T15:31:11;8.20;99.90
55777;DHT22;54079;44.540;18.784;2022-11-20T15:33:37;8.20;99.90
55777;DHT22;54079;44.540;18.784;2022-11-20T15:36:04;8.30;99.90
55777;DHT22;54079;44.540;18.784;2022-11-20T15:38:30;8.10;99.90
55777;DHT22;54079;44.540;18.784;2022-11-20T15:40:56;8.10;99.90
55777;DHT22;54079;44.540;18.784;2022-11-20T15:43:22;8.20;99.90
55777;DHT22;54079;44.540;18.784;2022-11-20T15:45:56;8.20;99.90
55777;DHT22;54079;44.540;18.784;2022-11-20T15:48:29;8.20;99.90
55777;DHT22;54079;44.540;18.784;2022-11-20T15:53:38;7.80;99.90
55777;DHT22;54079;44.540;18.784;2022-11-20T15:56:06;7.90;99.90
55777;DHT22;54079;44.540;18.784;2022-11-20T15:58:32;8.00;99.90
55777;DHT22;54079;44.540;18.784;2022-11-20T16:00:58;8.10;99.90
55777;DHT22;54079;44.540;18.784;2022-11-20T16:03:24;7.70;99.90
55777;DHT22;54079;44.540;18.784;2022-11-20T16:05:50;7.30;99.90
55777;DHT22;54079;44.540;18.784;2022-11-20T16:08:16;7.50;99.90
55777;DHT22;54079;44.540;18.784;2022-11-20T16:10:42;7.70;99.90
55777;DHT22;54079;44.540;18.784;2022-11-20T16:13:13;7.80;99.90
55777;DHT22;54079;44.540;18.784;2022-11-20T16:15:59;8.10;99.90
55777;DHT22;54079;44.540;18.784;2022-11-20T16:18:25;8.00;99.90
55777;DHT22;54079;44.540;18.784;2022-11-20T16:20:53;8.10;99.90
55777;DHT22;54079;44.540;18.784;2022-11-20T16:23:20;8.10;99.90
55777;DHT22;54079;44.540;18.784;2022-11-20T16:25:46;8.20;99.90
55777;DHT22;54079;44.540;18.784;2022-11-20T16:28:13;7.90;99.90
55777;DHT22;54079;44.540;18.784;2022-11-20T16:30:39;7.80;99.90
55777;DHT22;54079;44.540;18.784;2022-11-20T16:33:13;8.00;99.90
55777;DHT22;54079;44.540;18.784;2022-11-20T16:35:40;8.10;99.90
55777;DHT22;54079;44.540;18.784;2022-11-20T16:38:06;8.30;99.90
55777;DHT22;54079;44.540;18.784;2022-11-20T16:40:32;8.30;99.90
55777;DHT22;54079;44.540;18.784;2022-11-20T16:43:10;8.40;99.90
55777;DHT22;54079;44.540;18.784;2022-11-20T16:45:41;8.50;99.90
55777;DHT22;54079;44.540;18.784;2022-11-20T16:48:12;8.60;99.90
55777;DHT22;54079;44.540;18.784;2022-11-20T16:50:48;8.70;99.90
55777;DHT22;54079;44.540;18.784;2022-11-20T16:53:15;8.70;99.90
55777;DHT22;54079;44.540;18.784;2022-11-20T16:55:41;8.50;99.90
55777;DHT22;54079;44.540;18.784;2022-11-20T16:58:07;8.40;99.90
55777;DHT22;54079;44.540;18.784;2022-11-20T17:00:36;8.60;99.90
55777;DHT22;54079;44.540;18.784;2022-11-20T17:03:03;8.50;99.90
55777;DHT22;54079;44.540;18.784;2022-11-20T17:05:30;8.60;99.90
55777;DHT22;54079;44.540;18.784;2022-11-20T17:07:56;8.70;99.90
55777;DHT22;54079;44.540;18.784;2022-11-20T17:10:22;8.70;99.90
55777;DHT22;54079;44.540;18.784;2022-11-20T17:12:48;8.70;99.90
55777;DHT22;54079;44.540;18.784;2022-11-20T17:15:14;8.60;99.90
55777;DHT22;54079;44.540;18.784;2022-11-20T17:17:40;8.50;99.90
55777;DHT22;54079;44.540;18.784;2022-11-20T17:20:07;8.60;99.90
55777;DHT22;54079;44.540;18.784;2022-11-20T17:22:33;8.60;99.90
55777;DHT22;54079;44.540;18.784;2022-11-20T17:24:59;8.60;99.90
55777;DHT22;54079;44.540;18.784;2022-11-20T17:27:25;8.50;99.90
55777;DHT22;54079;44.540;18.784;2022-11-20T17:29:51;8.40;99.90
55777;DHT22;54079;44.540;18.784;2022-11-20T17:32:19;8.20;99.90
55777;DHT22;54079;44.540;18.784;2022-11-20T17:34:45;8.00;99.90